Time;durP1;ratioP1;P1;durP2;ratioP2;P2;SDS_P1;SDS_P2;PMS_P1;PMS_P2;Temp;Humidity;BMP_temperature;BMP_pressure;BME280_temperature;BME280_humidity;BME280_pressure;Samples;Min_cycle;Max_cycle;Signal;HPM_P1;HPM_P2
2021/06/27 00:01:22;;;;;;;42.00;23.17;;;16.00;99.90;;;;;;5047827;28;20035;-81
2021/06/27 00:03:49;;;;;;;40.90;23.58;;;16.00;99.90;;;;;;5047169;28;20037;-81
2021/06/27 00:06:15;;;;;;;38.63;23.90;;;16.00;99.90;;;;;;5046649;28;20079;-80
2021/06/27 00:08:41;;;;;;;44.50;24.20;;;16.00;99.90;;;;;;5051418;28;20056;-81
2021/06/27 00:11:09;;;;;;;36.83;23.02;;;15.90;99.90;;;;;;5063621;28;20053;-81
2021/06/27 00:13:38;;;;;;;44.00;24.42;;;15.90;99.90;;;;;;5066107;28;20061;-80
2021/06/27 00:16:04;;;;;;;47.90;25.90;;;15.90;99.90;;;;;;5046971;28;20045;-81
2021/06/27 00:18:31;;;;;;;41.38;24.35;;;15.90;99.90;;;;;;5041946;28;20068;-81
2021/06/27 00:20:59;;;;;;;41.10;23.85;;;15.80;99.90;;;;;;5049277;28;20104;-80
2021/06/27 00:23:29;;;;;;;36.15;22.75;;;15.80;99.90;;;;;;5047248;28;20092;-80
2021/06/27 00:25:56;;;;;;;42.47;24.02;;;15.80;99.90;;;;;;5047867;28;20405;-80
2021/06/27 00:28:24;;;;;;;44.10;24.77;;;15.80;99.90;;;;;;5047433;28;20099;-80
2021/06/27 00:30:52;;;;;;;40.83;23.38;;;15.80;99.90;;;;;;5050319;28;20035;-80
2021/06/27 00:33:19;;;;;;;44.63;25.77;;;15.70;99.90;;;;;;5043631;28;20171;-80
2021/06/27 00:35:45;;;;;;;48.13;25.50;;;15.70;99.90;;;;;;5048512;28;21320;-80
2021/06/27 00:38:12;;;;;;;43.20;24.35;;;15.70;99.90;;;;;;5047741;28;20134;-80
2021/06/27 00:40:39;;;;;;;42.00;24.33;;;15.70;99.90;;;;;;5044607;28;20045;-80
2021/06/27 00:43:06;;;;;;;46.45;25.33;;;15.70;99.90;;;;;;5054930;28;20040;-80
2021/06/27 00:45:32;;;;;;;41.85;24.30;;;15.60;99.90;;;;;;5049527;28;20033;-80
2021/06/27 00:48:01;;;;;;;38.15;24.77;;;15.70;99.90;;;;;;5046388;28;20071;-80
2021/06/27 00:50:34;;;;;;;46.55;25.75;;;15.70;99.90;;;;;;5048334;28;20079;-80
2021/06/27 00:53:00;;;;;;;39.25;24.00;;;15.60;99.90;;;;;;5029756;28;20060;-81
2021/06/27 00:55:26;;;;;;;41.55;23.55;;;15.60;99.90;;;;;;5054914;28;20056;-79
2021/06/27 00:57:54;;;;;;;42.42;24.95;;;15.60;99.90;;;;;;5088165;28;20060;-79
2021/06/27 01:00:40;;;;;;;44.45;24.70;;;15.50;99.90;;;;;;5073050;28;20040;-81
2021/06/27 01:03:07;;;;;;;38.20;22.90;;;15.50;99.90;;;;;;5067032;28;20021;-81
2021/06/27 01:05:38;;;;;;;43.08;24.52;;;15.50;99.90;;;;;;5040642;28;20029;-81
2021/06/27 01:08:05;;;;;;;49.53;25.65;;;15.50;99.90;;;;;;5046615;28;20037;-81
2021/06/27 01:10:32;;;;;;;49.28;27.15;;;15.50;99.90;;;;;;5042415;28;20040;-81
2021/06/27 01:12:58;;;;;;;49.97;28.50;;;15.40;99.90;;;;;;5046835;28;20072;-80
2021/06/27 01:15:24;;;;;;;52.92;27.77;;;15.40;99.90;;;;;;5045161;28;20040;-81
2021/06/27 01:17:52;;;;;;;52.60;27.50;;;15.40;99.90;;;;;;5045491;28;20033;-80
2021/06/27 01:20:25;;;;;;;46.22;25.58;;;15.40;99.90;;;;;;5046989;28;20041;-81
2021/06/27 01:22:51;;;;;;;46.60;24.77;;;15.40;99.90;;;;;;5053428;28;20512;-81
2021/06/27 01:25:26;;;;;;;48.35;26.40;;;15.40;99.90;;;;;;5063800;28;20037;-81
2021/06/27 01:27:53;;;;;;;48.10;26.33;;;15.40;99.90;;;;;;5062645;28;20102;-81
2021/06/27 01:30:20;;;;;;;47.03;24.92;;;15.30;99.90;;;;;;5046780;28;20108;-81
2021/06/27 01:32:48;;;;;;;48.17;25.08;;;15.40;99.90;;;;;;5048421;28;20043;-81
2021/06/27 01:35:17;;;;;;;46.03;25.15;;;15.40;99.90;;;;;;5047291;28;20048;-81
2021/06/27 01:37:45;;;;;;;47.38;26.42;;;15.40;99.90;;;;;;5043756;28;20499;-80
2021/06/27 01:40:13;;;;;;;49.38;26.33;;;15.30;99.90;;;;;;5042691;28;20500;-80
2021/06/27 01:42:40;;;;;;;48.67;26.00;;;15.30;99.90;;;;;;5047947;28;20029;-80
2021/06/27 01:45:22;;;;;;;47.90;25.73;;;15.40;99.90;;;;;;5049814;28;20037;-80
2021/06/27 01:47:57;;;;;;;46.45;26.73;;;15.30;99.90;;;;;;5047992;28;20037;-80
2021/06/27 01:50:24;;;;;;;48.42;25.58;;;15.30;99.90;;;;;;5046760;28;20124;-81
2021/06/27 01:52:52;;;;;;;48.00;26.02;;;15.30;99.90;;;;;;5048378;28;20055;-80
2021/06/27 01:55:18;;;;;;;46.45;25.70;;;15.20;99.90;;;;;;5048201;28;20040;-81
2021/06/27 01:57:44;;;;;;;49.90;25.70;;;15.20;99.90;;;;;;5050105;28;20033;-81
2021/06/27 02:00:10;;;;;;;46.97;26.00;;;15.20;99.90;;;;;;5041707;28;20044;-81
2021/06/27 02:02:36;;;;;;;47.97;26.20;;;15.20;99.90;;;;;;5045074;28;20045;-81
2021/06/27 02:05:03;;;;;;;48.63;24.63;;;15.20;99.90;;;;;;5045407;28;20037;-81
2021/06/27 02:07:29;;;;;;;48.58;26.20;;;15.20;99.90;;;;;;5052917;28;20397;-81
2021/06/27 02:09:55;;;;;;;48.60;26.20;;;15.10;99.90;;;;;;5050760;28;20048;-81
2021/06/27 02:12:21;;;;;;;42.88;24.38;;;15.10;99.90;;;;;;5053175;28;20029;-81
2021/06/27 02:14:47;;;;;;;50.10;25.25;;;15.10;99.90;;;;;;5048570;28;20321;-81
2021/06/27 02:17:13;;;;;;;56.70;27.45;;;15.10;99.90;;;;;;5054401;28;20118;-81
2021/06/27 02:19:40;;;;;;;49.58;25.58;;;15.10;99.90;;;;;;5051957;28;20045;-81
2021/06/27 02:22:06;;;;;;;50.13;27.30;;;15.00;99.90;;;;;;5073103;28;20419;-81
2021/06/27 02:24:33;;;;;;;49.13;25.90;;;15.00;99.90;;;;;;5033404;28;20039;-81
2021/06/27 02:27:00;;;;;;;48.78;26.25;;;15.00;99.90;;;;;;5050187;28;20048;-81
2021/06/27 02:29:27;;;;;;;45.60;25.30;;;15.00;99.90;;;;;;5054069;28;20033;-81
2021/06/27 02:31:53;;;;;;;47.90;25.20;;;15.00;99.90;;;;;;5052693;28;20045;-81
2021/06/27 02:34:20;;;;;;;47.58;24.80;;;14.90;99.90;;;;;;5047697;28;20107;-81
2021/06/27 02:36:48;;;;;;;46.75;24.92;;;15.00;99.90;;;;;;5049593;28;20036;-81
2021/06/27 02:39:14;;;;;;;48.15;25.95;;;15.00;99.90;;;;;;5046895;28;20040;-81
2021/06/27 02:41:41;;;;;;;52.35;27.08;;;14.90;99.90;;;;;;5048634;28;20939;-81
2021/06/27 02:44:08;;;;;;;57.88;27.08;;;15.00;99.90;;;;;;5050581;28;20131;-81
2021/06/27 02:46:34;;;;;;;49.80;26.38;;;15.00;99.90;;;;;;5048149;28;20395;-81
2021/06/27 02:49:05;;;;;;;50.78;26.60;;;15.00;99.90;;;;;;5049340;28;20362;-81
2021/06/27 02:51:32;;;;;;;56.67;27.85;;;15.00;99.90;;;;;;5026887;28;20127;-81
2021/06/27 02:53:57;;;;;;;56.88;27.65;;;15.00;99.90;;;;;;5032984;28;20172;-81
2021/06/27 02:56:26;;;;;;;55.30;27.52;;;15.00;99.90;;;;;;5050294;28;22062;-81
2021/06/27 02:58:53;;;;;;;53.58;27.95;;;15.00;99.90;;;;;;5047810;28;20076;-81
2021/06/27 03:01:20;;;;;;;52.55;28.02;;;14.90;99.90;;;;;;5049827;28;20118;-81
2021/06/27 03:03:52;;;;;;;57.70;28.13;;;14.90;99.90;;;;;;5050457;28;20071;-81
2021/06/27 03:06:19;;;;;;;58.53;29.50;;;15.00;99.90;;;;;;5050950;28;20039;-81
2021/06/27 03:08:47;;;;;;;53.08;27.67;;;15.00;99.90;;;;;;5051516;28;20171;-81
2021/06/27 03:11:13;;;;;;;59.00;28.75;;;14.90;99.90;;;;;;5064246;28;20048;-81
2021/06/27 03:13:41;;;;;;;51.60;27.02;;;14.90;99.90;;;;;;5044732;28;20135;-81
2021/06/27 03:16:08;;;;;;;55.00;27.17;;;15.00;99.90;;;;;;5064783;28;20032;-81
2021/06/27 03:18:36;;;;;;;61.30;28.48;;;15.00;99.90;;;;;;5047707;28;20122;-81
2021/06/27 03:21:02;;;;;;;65.18;29.35;;;14.90;99.90;;;;;;5047924;28;20037;-81
2021/06/27 03:23:29;;;;;;;57.42;28.05;;;14.80;99.90;;;;;;5065538;28;20032;-81
2021/06/27 03:25:57;;;;;;;59.92;29.25;;;14.80;99.90;;;;;;5044815;28;20039;-81
2021/06/27 03:28:23;;;;;;;56.63;28.77;;;14.90;99.90;;;;;;5046311;28;20028;-81
2021/06/27 03:30:49;;;;;;;63.53;29.48;;;14.90;99.90;;;;;;5048328;28;20165;-81
2021/06/27 03:33:16;;;;;;;56.70;28.08;;;14.90;99.90;;;;;;5051164;28;20037;-81
2021/06/27 03:35:42;;;;;;;63.55;29.88;;;14.90;99.90;;;;;;5049251;28;20170;-81
2021/06/27 03:40:39;;;;;;;63.15;29.30;;;14.90;99.90;;;;;;5047854;28;20080;-81
2021/06/27 03:43:06;;;;;;;57.90;29.42;;;15.00;99.90;;;;;;5046532;28;20043;-81
2021/06/27 03:45:32;;;;;;;54.65;28.17;;;15.00;99.90;;;;;;5048860;28;20033;-81
2021/06/27 03:47:58;;;;;;;62.05;30.10;;;15.10;99.90;;;;;;5049346;28;20077;-81
2021/06/27 03:50:25;;;;;;;57.83;29.35;;;15.10;99.90;;;;;;5050755;28;20045;-81
2021/06/27 03:53:29;;;;;;;59.95;29.00;;;15.10;99.90;;;;;;5047194;28;20041;-81
2021/06/27 03:55:57;;;;;;;57.67;27.35;;;15.10;99.90;;;;;;5053175;28;20037;-81
2021/06/27 03:58:27;;;;;;;57.50;27.65;;;15.10;99.90;;;;;;5050183;28;20029;-81
2021/06/27 04:00:54;;;;;;;58.35;28.30;;;15.20;99.90;;;;;;5045943;28;20437;-82
2021/06/27 04:03:21;;;;;;;53.47;27.00;;;15.20;99.90;;;;;;5047356;28;20158;-81
2021/06/27 04:05:47;;;;;;;53.17;27.27;;;15.30;99.90;;;;;;5049671;28;20483;-81
2021/06/27 04:08:13;;;;;;;51.88;26.85;;;15.30;99.90;;;;;;5046754;28;20069;-81
2021/06/27 04:10:39;;;;;;;59.22;28.00;;;15.30;99.90;;;;;;5047481;28;20078;-81
2021/06/27 04:13:05;;;;;;;47.13;25.23;;;15.40;99.90;;;;;;5049768;28;20146;-81
2021/06/27 04:15:32;;;;;;;43.72;24.80;;;15.40;99.90;;;;;;5048627;28;20548;-81
2021/06/27 04:17:58;;;;;;;49.22;26.35;;;15.40;99.90;;;;;;5041185;28;20052;-82
2021/06/27 04:20:24;;;;;;;46.42;24.17;;;15.50;99.90;;;;;;5048965;28;20127;-81
2021/06/27 04:22:51;;;;;;;44.72;23.92;;;15.60;99.90;;;;;;5026136;28;20497;-81
2021/06/27 04:25:17;;;;;;;38.55;22.85;;;15.60;99.90;;;;;;5047571;28;20028;-81
2021/06/27 04:27:43;;;;;;;39.78;22.83;;;15.80;99.90;;;;;;5044630;28;20378;-81
2021/06/27 04:30:09;;;;;;;44.47;23.13;;;16.00;99.90;;;;;;5050179;28;20128;-81
2021/06/27 04:32:37;;;;;;;37.50;22.13;;;16.10;99.90;;;;;;5049605;28;20052;-81
2021/06/27 04:35:06;;;;;;;38.00;22.85;;;16.20;99.90;;;;;;5046411;28;20029;-81
2021/06/27 04:37:33;;;;;;;35.90;21.48;;;16.40;99.90;;;;;;5045855;28;20053;-81
2021/06/27 04:39:59;;;;;;;37.17;21.25;;;16.80;99.90;;;;;;5054133;28;20052;-81
2021/06/27 04:42:25;;;;;;;37.97;21.90;;;17.10;99.90;;;;;;5046230;28;20041;-81
2021/06/27 04:44:51;;;;;;;33.95;21.10;;;17.20;99.90;;;;;;5047156;28;20095;-82
2021/06/27 04:47:17;;;;;;;31.77;20.13;;;17.50;99.90;;;;;;5027040;28;20045;-81
2021/06/27 04:49:42;;;;;;;36.42;20.52;;;17.70;99.90;;;;;;5042690;28;20036;-82
2021/06/27 04:52:09;;;;;;;31.88;19.35;;;17.70;99.90;;;;;;5026942;28;20132;-81
2021/06/27 04:54:37;;;;;;;30.98;19.42;;;17.80;99.90;;;;;;5049084;28;20116;-82
2021/06/27 04:57:04;;;;;;;27.30;19.17;;;17.80;99.90;;;;;;5028897;28;20041;-81
2021/06/27 04:59:30;;;;;;;29.92;19.63;;;18.10;99.90;;;;;;5046210;28;20043;-81
2021/06/27 05:01:55;;;;;;;28.95;19.25;;;18.10;99.90;;;;;;5046050;28;20481;-82
2021/06/27 05:04:22;;;;;;;29.27;18.85;;;18.00;99.90;;;;;;5044648;28;20102;-82
2021/06/27 05:06:47;;;;;;;30.90;19.30;;;17.70;99.90;;;;;;5048853;28;20119;-81
2021/06/27 05:09:14;;;;;;;27.95;18.15;;;17.40;99.90;;;;;;5048194;28;20436;-81
2021/06/27 05:11:39;;;;;;;29.50;19.23;;;17.20;99.90;;;;;;5045221;28;20380;-82
2021/06/27 05:14:06;;;;;;;27.10;17.35;;;17.10;99.90;;;;;;5046145;28;20113;-81
2021/06/27 05:16:32;;;;;;;29.45;17.98;;;17.00;99.90;;;;;;5042740;28;20037;-81
2021/06/27 05:18:58;;;;;;;24.88;17.67;;;17.00;99.90;;;;;;5027668;28;20060;-81
2021/06/27 05:21:24;;;;;;;29.88;19.17;;;16.90;99.90;;;;;;5043572;28;20041;-81
2021/06/27 05:23:49;;;;;;;26.95;17.30;;;17.00;99.90;;;;;;5048502;28;20043;-81
2021/06/27 05:26:15;;;;;;;27.15;18.02;;;16.90;99.90;;;;;;5047225;28;20477;-81
2021/06/27 05:28:41;;;;;;;26.17;16.92;;;17.10;99.90;;;;;;5044628;28;20107;-81
2021/06/27 05:31:07;;;;;;;30.75;18.33;;;17.10;99.90;;;;;;5062979;28;20033;-82
2021/06/27 05:33:33;;;;;;;27.90;17.45;;;17.10;99.90;;;;;;5042981;28;20497;-82
2021/06/27 05:35:59;;;;;;;28.38;16.48;;;17.20;99.90;;;;;;5044955;28;20060;-81
2021/06/27 05:38:25;;;;;;;24.45;16.80;;;17.20;99.90;;;;;;5044918;28;20480;-79
2021/06/27 05:40:52;;;;;;;27.08;15.68;;;17.20;99.90;;;;;;5043681;28;20065;-77
2021/06/27 05:43:18;;;;;;;29.13;16.65;;;17.30;99.90;;;;;;5048909;28;20044;-79
2021/06/27 05:45:43;;;;;;;22.63;15.10;;;17.30;99.90;;;;;;5059641;28;20037;-82
2021/06/27 05:48:09;;;;;;;22.83;16.17;;;17.40;99.90;;;;;;5048201;28;20056;-80
2021/06/27 05:50:35;;;;;;;22.80;15.60;;;17.40;99.90;;;;;;5045505;28;20037;-80
2021/06/27 05:53:01;;;;;;;26.20;16.17;;;17.50;99.90;;;;;;5038966;28;20133;-77
2021/06/27 05:55:28;;;;;;;21.60;15.13;;;17.60;99.90;;;;;;5047500;28;20048;-78
2021/06/27 05:57:54;;;;;;;23.08;14.05;;;17.60;99.90;;;;;;5044815;28;20029;-80
2021/06/27 06:00:20;;;;;;;19.60;12.57;;;17.70;99.90;;;;;;5043116;28;20049;-79
2021/06/27 06:02:46;;;;;;;21.50;14.93;;;17.80;99.90;;;;;;5059861;28;22208;-79
2021/06/27 06:05:12;;;;;;;23.38;15.02;;;17.80;99.90;;;;;;5041047;28;20140;-79
2021/06/27 06:07:37;;;;;;;24.90;15.70;;;17.80;99.90;;;;;;5041102;28;20029;-79
2021/06/27 06:10:05;;;;;;;22.95;14.73;;;17.80;99.90;;;;;;5045226;28;20057;-78
2021/06/27 06:12:30;;;;;;;20.92;14.95;;;17.80;99.90;;;;;;5046072;28;20039;-78
2021/06/27 06:14:56;;;;;;;22.98;14.68;;;17.80;99.90;;;;;;5047271;28;20033;-81
2021/06/27 06:17:22;;;;;;;21.65;14.60;;;17.90;99.90;;;;;;5047999;28;20069;-81
2021/06/27 06:19:51;;;;;;;22.98;15.30;;;18.00;99.90;;;;;;5040445;28;22094;-81
2021/06/27 06:22:19;;;;;;;23.10;14.70;;;18.10;99.90;;;;;;5044297;28;20044;-82
2021/06/27 06:24:45;;;;;;;18.88;14.40;;;18.10;99.90;;;;;;5058699;28;20041;-82
2021/06/27 06:27:11;;;;;;;20.05;13.98;;;18.20;99.90;;;;;;5048813;28;20680;-82
2021/06/27 06:29:37;;;;;;;23.63;15.55;;;18.30;99.90;;;;;;5061518;28;20037;-81
2021/06/27 06:32:03;;;;;;;20.05;13.52;;;18.30;99.90;;;;;;5069177;28;20400;-81
2021/06/27 06:34:31;;;;;;;21.77;14.10;;;18.30;99.90;;;;;;5064537;28;20029;-84
2021/06/27 06:36:57;;;;;;;20.60;14.07;;;18.30;99.90;;;;;;5048119;28;20043;-80
2021/06/27 06:39:23;;;;;;;19.85;14.05;;;18.30;99.90;;;;;;5042895;28;20041;-80
2021/06/27 06:41:49;;;;;;;21.15;13.57;;;18.30;99.90;;;;;;5045673;28;20045;-80
2021/06/27 06:44:14;;;;;;;22.63;13.38;;;18.30;99.90;;;;;;5028168;28;20423;-80
2021/06/27 06:46:41;;;;;;;23.27;13.02;;;18.40;99.90;;;;;;5047137;28;20064;-81
2021/06/27 06:49:08;;;;;;;17.27;12.52;;;18.50;99.90;;;;;;5047306;28;20118;-80
2021/06/27 06:51:33;;;;;;;22.55;12.52;;;18.50;99.90;;;;;;5043858;28;20067;-80
2021/06/27 06:53:59;;;;;;;19.27;13.00;;;18.50;99.90;;;;;;5052626;28;20445;-79
2021/06/27 06:56:26;;;;;;;19.35;12.77;;;18.60;99.90;;;;;;5050136;28;20366;-80
2021/06/27 06:58:52;;;;;;;22.83;12.68;;;18.70;99.90;;;;;;5050716;28;20055;-80
2021/06/27 07:01:18;;;;;;;17.70;12.73;;;18.80;99.90;;;;;;5050935;28;20064;-80
2021/06/27 07:03:45;;;;;;;19.45;13.00;;;18.80;99.90;;;;;;5047613;28;20051;-80
2021/06/27 07:06:11;;;;;;;21.05;12.88;;;18.90;99.90;;;;;;5050408;28;20032;-81
2021/06/27 07:08:37;;;;;;;21.65;13.00;;;18.90;99.90;;;;;;5046310;28;20047;-80
2021/06/27 07:11:03;;;;;;;19.33;13.93;;;19.00;99.90;;;;;;5045298;28;20041;-81
2021/06/27 07:13:28;;;;;;;19.95;13.25;;;19.00;99.90;;;;;;5051787;28;20044;-80
2021/06/27 07:15:54;;;;;;;20.33;13.23;;;19.10;99.90;;;;;;5050203;28;20041;-80
2021/06/27 07:18:20;;;;;;;19.95;12.77;;;19.10;99.90;;;;;;5052650;28;20044;-77
2021/06/27 07:20:50;;;;;;;27.15;14.63;;;19.20;99.90;;;;;;5051522;28;20028;-78
2021/06/27 07:23:16;;;;;;;22.40;14.73;;;19.10;99.90;;;;;;5050932;28;20485;-76
2021/06/27 07:25:43;;;;;;;22.30;14.95;;;19.20;99.90;;;;;;5045983;28;20441;-75
2021/06/27 07:28:08;;;;;;;21.75;14.73;;;19.20;99.90;;;;;;5050359;28;20142;-76
2021/06/27 07:30:34;;;;;;;19.25;13.90;;;19.20;99.90;;;;;;5050936;28;20069;-77
2021/06/27 07:33:00;;;;;;;20.20;14.02;;;19.30;99.90;;;;;;5045936;28;20061;-79
2021/06/27 07:35:26;;;;;;;24.60;15.13;;;19.40;99.90;;;;;;5049796;28;20034;-77
2021/06/27 07:37:52;;;;;;;20.25;14.50;;;19.40;99.90;;;;;;5029558;28;20049;-79
2021/06/27 07:40:18;;;;;;;19.45;14.50;;;19.50;99.90;;;;;;5050636;28;20076;-76
2021/06/27 07:42:44;;;;;;;25.45;15.07;;;19.60;99.90;;;;;;5040549;28;20090;-80
2021/06/27 07:45:10;;;;;;;22.77;14.73;;;19.60;99.90;;;;;;5039420;28;20131;-78
2021/06/27 07:47:36;;;;;;;23.48;15.13;;;19.60;99.90;;;;;;5051860;28;20483;-79
2021/06/27 07:50:04;;;;;;;22.95;14.13;;;19.40;99.90;;;;;;5026571;28;20159;-79
2021/06/27 07:52:30;;;;;;;19.10;15.48;;;19.50;99.90;;;;;;5048047;28;20036;-77
2021/06/27 07:54:55;;;;;;;19.98;14.85;;;19.40;99.90;;;;;;5049285;28;20049;-78
2021/06/27 07:57:22;;;;;;;21.25;14.98;;;19.40;99.90;;;;;;5048953;28;20419;-78
2021/06/27 07:59:48;;;;;;;24.55;14.85;;;19.40;99.90;;;;;;5047837;28;20045;-78
2021/06/27 08:02:13;;;;;;;19.95;14.50;;;19.40;99.90;;;;;;5048414;28;20067;-78
2021/06/27 08:04:40;;;;;;;18.77;14.50;;;19.60;99.90;;;;;;5047387;28;20053;-81
2021/06/27 08:07:06;;;;;;;23.65;15.02;;;19.70;99.90;;;;;;5050215;28;20190;-82
2021/06/27 08:09:32;;;;;;;22.25;14.70;;;19.90;99.90;;;;;;5031279;28;20513;-83
2021/06/27 08:11:57;;;;;;;21.33;15.13;;;19.90;99.90;;;;;;5042214;28;20048;-81
2021/06/27 08:14:23;;;;;;;23.67;15.27;;;20.00;99.90;;;;;;5049907;28;20040;-80
2021/06/27 08:16:49;;;;;;;18.77;13.15;;;20.10;99.90;;;;;;5040819;28;20045;-81
2021/06/27 08:19:16;;;;;;;20.02;13.50;;;20.20;99.90;;;;;;5045994;28;20086;-81
2021/06/27 08:21:41;;;;;;;17.77;13.35;;;20.30;99.90;;;;;;5023214;28;20043;-78
2021/06/27 08:24:07;;;;;;;17.08;12.63;;;20.40;99.90;;;;;;5042123;28;20116;-82
2021/06/27 08:26:33;;;;;;;18.38;12.98;;;20.40;99.90;;;;;;5065275;28;20032;-80
2021/06/27 08:28:59;;;;;;;17.55;12.68;;;20.30;99.90;;;;;;5052441;28;20037;-81
2021/06/27 08:31:26;;;;;;;15.80;11.30;;;20.40;99.90;;;;;;5069567;28;20029;-83
2021/06/27 08:33:52;;;;;;;22.52;13.30;;;20.50;99.90;;;;;;5065144;28;20477;-82
2021/06/27 08:36:18;;;;;;;19.15;12.82;;;20.40;99.90;;;;;;5051297;28;20098;-81
2021/06/27 08:38:44;;;;;;;17.95;12.60;;;20.30;99.90;;;;;;5043425;28;20032;-81
2021/06/27 08:41:14;;;;;;;15.70;11.88;;;20.30;99.90;;;;;;5030371;28;20051;-79
2021/06/27 08:43:41;;;;;;;16.77;11.80;;;20.60;99.90;;;;;;5047353;28;20044;-82
2021/06/27 08:46:08;;;;;;;17.15;12.35;;;20.60;99.90;;;;;;5051501;28;20091;-85
2021/06/27 08:48:38;;;;;;;21.25;12.18;;;20.70;99.90;;;;;;5050201;28;20041;-80
2021/06/27 08:51:06;;;;;;;17.30;11.98;;;20.80;99.90;;;;;;5050815;28;20404;-78
2021/06/27 08:53:34;;;;;;;15.52;11.90;;;20.90;99.90;;;;;;5051692;28;20059;-82
2021/06/27 08:56:08;;;;;;;15.13;10.88;;;21.00;99.90;;;;;;5052952;28;20504;-83
2021/06/27 08:58:40;;;;;;;17.83;11.98;;;21.20;99.90;;;;;;5050610;28;20116;-85
2021/06/27 09:01:11;;;;;;;17.02;11.52;;;21.20;99.90;;;;;;5046591;28;20068;-78
2021/06/27 09:03:37;;;;;;;15.18;12.05;;;21.20;99.90;;;;;;5048918;28;20037;-83
2021/06/27 09:06:03;;;;;;;18.55;12.32;;;21.50;99.90;;;;;;5048061;28;20045;-83
2021/06/27 09:08:29;;;;;;;16.02;11.52;;;21.50;99.90;;;;;;5045846;28;20041;-80
2021/06/27 09:10:55;;;;;;;15.35;11.20;;;21.60;99.90;;;;;;5050220;28;20429;-78
2021/06/27 09:13:38;;;;;;;12.98;10.57;;;21.60;99.90;;;;;;5049686;28;20457;-80
2021/06/27 09:16:18;;;;;;;19.33;12.65;;;21.70;99.90;;;;;;5060164;28;20036;-77
2021/06/27 09:18:44;;;;;;;16.80;11.32;;;21.80;99.90;;;;;;5064651;28;20036;-75
2021/06/27 09:21:10;;;;;;;17.50;11.00;;;21.80;99.90;;;;;;5049576;28;20032;-77
2021/06/27 09:23:35;;;;;;;16.52;11.73;;;22.10;99.90;;;;;;5049742;28;20029;-79
2021/06/27 09:26:02;;;;;;;15.95;11.82;;;21.70;99.90;;;;;;5047591;28;20489;-77
2021/06/27 09:28:48;;;;;;;15.27;10.95;;;21.50;99.90;;;;;;5065711;28;20506;-77
2021/06/27 09:31:46;;;;;;;17.13;12.40;;;21.60;99.90;;;;;;5046788;28;20069;-84
2021/06/27 09:34:13;;;;;;;17.55;12.10;;;21.70;99.90;;;;;;5050475;28;20413;-78
2021/06/27 09:37:05;;;;;;;16.67;11.90;;;21.80;99.90;;;;;;5066264;28;21857;-81
2021/06/27 09:39:31;;;;;;;17.00;11.23;;;21.90;99.90;;;;;;5046804;28;20051;-80
2021/06/27 09:41:58;;;;;;;15.13;11.40;;;21.80;99.90;;;;;;5068760;28;20037;-76
2021/06/27 09:44:24;;;;;;;13.18;11.77;;;21.90;99.90;;;;;;5069150;28;20102;-81
2021/06/27 09:46:53;;;;;;;15.00;11.43;;;21.80;99.90;;;;;;5055176;28;20044;-77
2021/06/27 09:49:26;;;;;;;17.50;12.13;;;21.90;99.90;;;;;;5048393;28;20116;-81
2021/06/27 09:52:07;;;;;;;15.52;11.65;;;22.00;99.90;;;;;;5059690;28;20055;-80
2021/06/27 09:54:33;;;;;;;12.98;10.95;;;22.20;99.90;;;;;;5049104;28;20052;-79
2021/06/27 09:56:59;;;;;;;15.25;10.93;;;22.30;99.90;;;;;;5052599;28;20133;-78
2021/06/27 09:59:33;;;;;;;16.85;11.10;;;22.30;99.90;;;;;;5053070;28;20036;-81
2021/06/27 10:01:59;;;;;;;13.68;11.60;;;22.30;99.90;;;;;;5035415;28;20044;-80
2021/06/27 10:04:33;;;;;;;14.70;10.55;;;22.30;99.90;;;;;;5068480;28;20447;-80
2021/06/27 10:07:04;;;;;;;11.52;10.15;;;22.50;99.90;;;;;;5052671;28;20119;-81
2021/06/27 10:09:34;;;;;;;12.43;10.40;;;22.40;99.90;;;;;;5066430;28;20053;-82
2021/06/27 10:12:04;;;;;;;12.27;9.80;;;22.70;99.90;;;;;;5047965;28;20029;-78
2021/06/27 10:14:56;;;;;;;16.75;10.10;;;22.50;99.90;;;;;;5038914;28;20034;-81
2021/06/27 10:17:25;;;;;;;10.90;9.48;;;22.30;99.90;;;;;;5053870;28;20048;-79
2021/06/27 10:19:52;;;;;;;12.75;9.85;;;22.60;99.90;;;;;;5050231;28;20131;-80
2021/06/27 10:22:20;;;;;;;15.43;10.55;;;22.60;99.90;;;;;;5067538;28;20099;-79
2021/06/27 10:25:07;;;;;;;12.48;9.95;;;22.90;99.90;;;;;;5065944;28;20040;-80
2021/06/27 10:27:33;;;;;;;12.30;9.75;;;22.70;99.90;;;;;;5057566;28;20032;-81
2021/06/27 10:30:01;;;;;;;16.08;9.82;;;22.60;99.90;;;;;;5068685;28;20079;-82
2021/06/27 10:32:29;;;;;;;13.63;10.23;;;22.40;99.90;;;;;;5038991;28;20040;-81
2021/06/27 10:34:58;;;;;;;14.77;10.05;;;22.60;99.90;;;;;;5073599;28;20048;-82
2021/06/27 10:37:32;;;;;;;12.82;9.25;;;22.50;99.90;;;;;;5072620;28;20067;-83
2021/06/27 10:40:07;;;;;;;12.15;9.07;;;22.40;99.90;;;;;;5071935;28;20575;-82
2021/06/27 10:42:50;;;;;;;11.65;9.13;;;22.60;99.90;;;;;;5072534;28;20519;-79
2021/06/27 10:45:20;;;;;;;12.35;8.85;;;22.60;99.90;;;;;;5069665;28;20037;-81
2021/06/27 10:47:47;;;;;;;10.30;9.13;;;22.80;99.90;;;;;;5063463;28;20083;-81
2021/06/27 10:50:15;;;;;;;11.18;9.95;;;23.00;99.90;;;;;;5072429;28;20041;-80
2021/06/27 10:52:57;;;;;;;11.95;9.70;;;23.10;99.90;;;;;;5054831;28;20557;-81
2021/06/27 10:55:41;;;;;;;11.38;9.13;;;23.30;99.90;;;;;;5055997;28;20131;-82
2021/06/27 10:58:15;;;;;;;12.27;9.13;;;23.30;99.90;;;;;;5050735;28;20033;-82
2021/06/27 11:00:53;;;;;;;15.98;9.63;;;23.90;99.90;;;;;;5050893;28;20048;-80
2021/06/27 11:03:34;;;;;;;15.20;9.75;;;23.80;99.90;;;;;;5039068;28;20054;-81
2021/06/27 11:06:05;;;;;;;11.77;9.68;;;23.40;99.90;;;;;;5062813;28;20484;-82
2021/06/27 11:08:42;;;;;;;10.88;9.30;;;23.50;99.90;;;;;;5052864;28;20037;-82
2021/06/27 11:11:19;;;;;;;11.48;9.60;;;23.30;99.90;;;;;;5030817;28;20385;-79
2021/06/27 11:14:17;;;;;;;15.60;9.70;;;23.30;99.90;;;;;;5054188;28;20072;-80
2021/06/27 11:17:00;;;;;;;12.98;8.60;;;23.10;99.90;;;;;;5052650;28;20435;-79
2021/06/27 11:19:43;;;;;;;13.13;9.90;;;23.20;99.90;;;;;;5051941;28;20508;-81
2021/06/27 11:22:20;;;;;;;13.02;9.40;;;23.40;99.90;;;;;;5078858;28;20091;-82
2021/06/27 11:24:47;;;;;;;11.57;8.77;;;23.90;99.90;;;;;;5047858;28;20480;-81
2021/06/27 11:27:36;;;;;;;10.52;8.77;;;24.10;99.90;;;;;;5046768;28;20037;-80
2021/06/27 11:30:26;;;;;;;11.88;8.50;;;24.30;99.90;;;;;;5062720;28;20068;-80
2021/06/27 11:32:53;;;;;;;9.60;8.15;;;24.40;99.90;;;;;;5050453;28;20036;-81
2021/06/27 11:35:34;;;;;;;13.18;8.63;;;24.40;99.90;;;;;;5053455;28;20045;-80
2021/06/27 11:38:00;;;;;;;12.60;9.18;;;24.10;99.90;;;;;;5048891;28;20388;-80
2021/06/27 11:40:44;;;;;;;11.23;9.30;;;24.00;99.90;;;;;;5052591;28;20396;-82
2021/06/27 11:43:10;;;;;;;9.70;8.13;;;24.00;99.90;;;;;;5041518;28;20033;-84
2021/06/27 11:45:39;;;;;;;9.75;8.73;;;24.30;99.90;;;;;;5050212;28;20041;-80
2021/06/27 11:48:08;;;;;;;9.73;8.30;;;24.20;99.90;;;;;;5053390;28;20029;-84
2021/06/27 11:50:36;;;;;;;10.68;8.60;;;24.20;99.90;;;;;;5072666;28;20033;-75
2021/06/27 11:53:08;;;;;;;14.80;8.32;;;24.40;99.90;;;;;;5042167;28;20465;-79
2021/06/27 11:55:37;;;;;;;9.75;8.75;;;24.10;99.90;;;;;;5050209;28;20116;-77
2021/06/27 11:58:05;;;;;;;11.70;7.93;;;23.90;99.90;;;;;;5050571;28;20029;-78
2021/06/27 12:00:39;;;;;;;10.05;8.07;;;24.40;99.90;;;;;;5051580;28;20044;-78
2021/06/27 12:03:09;;;;;;;11.55;7.97;;;24.60;99.90;;;;;;5050932;28;20039;-76
2021/06/27 12:05:37;;;;;;;9.23;7.00;;;24.70;99.90;;;;;;5049222;28;20041;-76
2021/06/27 12:08:08;;;;;;;10.05;7.63;;;25.30;99.90;;;;;;5047741;28;20052;-77
2021/06/27 12:10:35;;;;;;;9.23;7.38;;;25.30;99.90;;;;;;5053013;28;20492;-77
2021/06/27 12:13:10;;;;;;;9.95;7.70;;;25.40;99.90;;;;;;5053593;28;20033;-76
2021/06/27 12:15:45;;;;;;;9.00;7.70;;;25.30;99.90;;;;;;5052723;28;20029;-79
2021/06/27 12:18:18;;;;;;;8.63;7.43;;;25.50;99.90;;;;;;5047533;28;20112;-78
2021/06/27 12:20:48;;;;;;;7.57;6.78;;;25.10;99.90;;;;;;5045166;28;20399;-78
2021/06/27 12:23:34;;;;;;;8.75;7.22;;;25.00;99.90;;;;;;5050254;28;20065;-77
2021/06/27 12:26:07;;;;;;;9.52;7.00;;;25.40;99.90;;;;;;5043591;28;20039;-77
2021/06/27 12:28:49;;;;;;;20.13;8.05;;;25.30;99.90;;;;;;5050949;28;20028;-77
2021/06/27 12:31:18;;;;;;;10.00;7.35;;;24.80;99.90;;;;;;5049587;28;20040;-79
2021/06/27 12:33:46;;;;;;;19.25;7.20;;;24.90;99.90;;;;;;5045783;28;20048;-77
2021/06/27 12:36:29;;;;;;;8.95;7.00;;;25.30;99.90;;;;;;5050189;28;22042;-79
2021/06/27 12:39:02;;;;;;;9.05;7.10;;;25.10;99.90;;;;;;5069737;28;20033;-78